createdAt,value
2019-03-17T00:00:20.241Z,9.64
2019-03-17T00:01:20.494Z,9.44
2019-03-17T00:02:20.483Z,9.56
2019-03-17T00:03:20.212Z,9.41
2019-03-17T00:04:30.852Z,9.36
2019-03-17T00:05:20.212Z,9.39
2019-03-17T00:06:20.206Z,9.43
2019-03-17T00:07:20.445Z,9.34
2019-03-17T00:08:20.201Z,9.36
2019-03-17T00:09:20.187Z,9.29
2019-03-17T00:10:20.432Z,9.29
2019-03-17T00:11:20.170Z,9.28
2019-03-17T00:12:20.427Z,9.31
2019-03-17T00:13:22.667Z,9.14
2019-03-17T00:14:20.174Z,9.16
2019-03-17T00:15:20.431Z,9.14
2019-03-17T00:16:20.150Z,9.13
2019-03-17T00:17:20.381Z,9.03
2019-03-17T00:18:20.375Z,9.1
2019-03-17T00:19:20.382Z,9.1
2019-03-17T00:20:20.119Z,9.11
2019-03-17T00:21:19.859Z,9.1
2019-03-17T00:22:20.104Z,9.04
2019-03-17T00:23:19.836Z,9.06
2019-03-17T00:24:20.072Z,9.11
2019-03-17T00:25:20.065Z,9.11
2019-03-17T00:26:19.823Z,9.13
2019-03-17T00:27:19.815Z,9.03
2019-03-17T00:28:20.283Z,9.04
2019-03-17T00:29:20.289Z,9.02
2019-03-17T00:30:19.913Z,8.95
2019-03-17T00:31:28.945Z,9
2019-03-17T00:32:20.034Z,8.87
2019-03-17T00:33:20.281Z,8.94
2019-03-17T00:34:20.250Z,8.91
2019-03-17T00:35:20.060Z,8.84
2019-03-17T00:36:20.305Z,8.79
2019-03-17T00:37:20.266Z,8.76
2019-03-17T00:38:19.986Z,8.71
2019-03-17T00:39:19.971Z,8.74
2019-03-17T00:40:19.993Z,8.71
2019-03-17T00:41:19.960Z,8.73
2019-03-17T00:42:20.225Z,8.7
2019-03-17T00:43:20.228Z,8.66
2019-03-17T00:44:19.943Z,8.67
2019-03-17T00:45:20.031Z,8.63
2019-03-17T00:46:19.931Z,8.63
2019-03-17T00:47:19.932Z,8.6
2019-03-17T00:48:20.206Z,8.61
2019-03-17T00:49:19.909Z,8.56
2019-03-17T00:50:24.607Z,8.52
2019-03-17T00:51:20.159Z,8.63
2019-03-17T00:52:20.148Z,8.55
2019-03-17T00:53:20.127Z,8.63
2019-03-17T00:54:19.875Z,8.48
2019-03-17T00:55:20.139Z,8.58
2019-03-17T00:56:20.134Z,8.55
2019-03-17T00:57:19.851Z,8.58
2019-03-17T00:58:20.116Z,8.56
2019-03-17T00:59:20.103Z,8.56
2019-03-17T01:00:19.842Z,8.6
2019-03-17T01:01:19.825Z,8.52
2019-03-17T01:02:20.066Z,8.53
2019-03-17T01:03:20.059Z,8.58
2019-03-17T01:04:20.056Z,8.52
2019-03-17T01:05:19.871Z,8.61
2019-03-17T01:06:20.053Z,8.55
2019-03-17T01:07:20.075Z,8.51
2019-03-17T01:08:20.080Z,8.53
2019-03-17T01:09:20.033Z,8.52
2019-03-17T01:10:20.042Z,8.56
2019-03-17T01:11:20.001Z,8.55
2019-03-17T01:12:19.519Z,8.56
2019-03-17T01:13:19.734Z,8.51
2019-03-17T01:14:19.738Z,8.6
2019-03-17T01:15:19.480Z,8.63
2019-03-17T01:16:20.014Z,8.56
2019-03-17T01:17:19.714Z,8.67
2019-03-17T01:18:19.946Z,8.64
2019-03-17T01:19:19.962Z,8.81
2019-03-17T01:20:19.949Z,8.67
2019-03-17T01:21:19.939Z,8.71
2019-03-17T01:22:19.916Z,8.7
2019-03-17T01:23:19.915Z,8.76
2019-03-17T01:24:19.690Z,8.81
2019-03-17T01:25:19.675Z,8.76
2019-03-17T01:26:19.901Z,8.73
2019-03-17T01:27:19.901Z,8.79
2019-03-17T01:28:19.894Z,8.79
2019-03-17T01:29:19.885Z,8.71
2019-03-17T01:30:19.928Z,8.82
2019-03-17T01:31:19.860Z,8.82
2019-03-17T01:32:19.610Z,8.89
2019-03-17T01:33:19.611Z,8.88
2019-03-17T01:34:19.603Z,8.89
2019-03-17T01:35:19.846Z,8.85
2019-03-17T01:36:20.385Z,8.87
2019-03-17T01:37:19.586Z,8.99
2019-03-17T01:38:19.558Z,8.97
2019-03-17T01:39:19.323Z,8.94
2019-03-17T01:40:19.988Z,9.02
2019-03-17T01:41:19.550Z,8.89
2019-03-17T01:42:21.021Z,8.91
2019-03-17T01:43:19.806Z,8.92
2019-03-17T01:44:19.777Z,8.91
2019-03-17T01:45:19.561Z,8.87
2019-03-17T01:46:19.758Z,8.76
2019-03-17T01:47:19.537Z,8.71
2019-03-17T01:48:19.513Z,8.73
2019-03-17T01:49:19.496Z,8.7
2019-03-17T01:50:19.742Z,8.85
2019-03-17T01:51:20.513Z,8.73
2019-03-17T01:52:19.476Z,8.81
2019-03-17T01:53:19.701Z,8.7
2019-03-17T01:54:19.687Z,8.73
2019-03-17T01:55:19.258Z,8.78
2019-03-17T01:56:19.692Z,8.82
2019-03-17T01:57:19.723Z,8.94
2019-03-17T01:58:19.425Z,8.87
2019-03-17T01:59:19.660Z,8.85
2019-03-17T02:00:19.797Z,8.87
2019-03-17T02:01:19.651Z,8.95
2019-03-17T02:02:19.414Z,8.95
2019-03-17T02:03:19.390Z,8.97
2019-03-17T02:04:19.632Z,8.95
2019-03-17T02:05:27.096Z,8.94
2019-03-17T02:06:19.614Z,9
2019-03-17T02:07:19.683Z,8.88
2019-03-17T02:08:19.600Z,8.91
2019-03-17T02:09:19.345Z,8.92
2019-03-17T02:10:19.624Z,8.88
2019-03-17T02:11:19.583Z,8.82
2019-03-17T02:12:19.330Z,8.71
2019-03-17T02:13:19.359Z,8.84
2019-03-17T02:14:19.581Z,8.69
2019-03-17T02:15:19.440Z,8.91
2019-03-17T02:16:19.553Z,8.78
2019-03-17T02:17:19.037Z,8.82
2019-03-17T02:18:19.554Z,8.87
2019-03-17T02:19:19.276Z,8.74
2019-03-17T02:20:19.622Z,8.76
2019-03-17T02:21:19.520Z,8.74
2019-03-17T02:22:22.123Z,8.7
2019-03-17T02:23:19.508Z,8.78
2019-03-17T02:24:18.992Z,8.82
2019-03-17T02:25:19.289Z,8.69
2019-03-17T02:26:19.223Z,8.67
2019-03-17T02:27:19.248Z,8.64
2019-03-17T02:28:19.208Z,8.64
2019-03-17T02:29:19.219Z,8.66
2019-03-17T02:30:18.986Z,8.56
2019-03-17T02:31:19.456Z,8.53
2019-03-17T02:32:19.185Z,8.51
2019-03-17T02:33:19.182Z,8.56
2019-03-17T02:34:19.429Z,8.55
2019-03-17T02:35:18.951Z,8.55
2019-03-17T02:36:19.406Z,8.55
2019-03-17T02:37:18.957Z,8.52
2019-03-17T02:38:19.153Z,8.42
2019-03-17T02:39:19.383Z,8.49
2019-03-17T02:40:19.208Z,8.52
2019-03-17T02:41:19.410Z,8.41
2019-03-17T02:42:19.407Z,8.41
2019-03-17T02:43:19.382Z,8.46
2019-03-17T02:44:19.093Z,8.37
2019-03-17T02:45:19.157Z,8.38
2019-03-17T02:46:18.939Z,8.38
2019-03-17T02:47:19.343Z,8.34
2019-03-17T02:48:19.127Z,8.28
2019-03-17T02:49:19.378Z,8.27
2019-03-17T02:50:19.380Z,8.18
2019-03-17T02:51:20.692Z,8.18
2019-03-17T02:52:19.314Z,8.06
2019-03-17T02:53:19.066Z,8.16
2019-03-17T02:54:19.296Z,8.06
2019-03-17T02:55:19.172Z,7.95
2019-03-17T02:56:19.037Z,7.95
2019-03-17T02:57:19.327Z,8
2019-03-17T02:58:19.030Z,7.88
2019-03-17T02:59:18.977Z,7.82
2019-03-17T03:00:23.302Z,7.73
2019-03-17T03:01:19.217Z,7.8
2019-03-17T03:02:18.969Z,7.67
2019-03-17T03:03:19.199Z,7.67
2019-03-17T03:04:18.947Z,7.72
2019-03-17T03:05:19.275Z,7.61
2019-03-17T03:06:19.207Z,7.6
2019-03-17T03:07:18.931Z,7.53
2019-03-17T03:08:19.185Z,7.48
2019-03-17T03:09:18.970Z,7.51
2019-03-17T03:10:19.222Z,7.53
2019-03-17T03:11:18.921Z,7.5
2019-03-17T03:12:19.154Z,7.53
2019-03-17T03:13:19.151Z,7.43
2019-03-17T03:14:18.876Z,7.48
2019-03-17T03:15:19.171Z,7.54
2019-03-17T03:16:19.136Z,7.54
2019-03-17T03:17:19.148Z,7.6
2019-03-17T03:18:18.839Z,7.61
2019-03-17T03:19:18.852Z,7.61
2019-03-17T03:20:18.908Z,7.7
2019-03-17T03:21:18.822Z,7.67
2019-03-17T03:22:19.054Z,7.69
2019-03-17T03:23:19.048Z,7.58
2019-03-17T03:24:18.795Z,7.57
2019-03-17T03:25:18.836Z,7.57
2019-03-17T03:26:19.031Z,7.66
2019-03-17T03:27:19.035Z,7.57
2019-03-17T03:28:18.762Z,7.6
2019-03-17T03:29:19.011Z,7.56
2019-03-17T03:30:18.792Z,7.56
2019-03-17T03:31:18.844Z,7.63
2019-03-17T03:32:19.027Z,7.5
2019-03-17T03:33:19.031Z,7.56
2019-03-17T03:34:18.963Z,7.5
2019-03-17T03:35:19.103Z,7.53
2019-03-17T03:36:18.457Z,7.38
2019-03-17T03:37:18.704Z,7.39
2019-03-17T03:38:18.961Z,7.33
2019-03-17T03:39:18.688Z,7.35
2019-03-17T03:40:18.969Z,7.36
2019-03-17T03:41:18.671Z,7.28
2019-03-17T03:42:18.638Z,7.29
2019-03-17T03:43:18.659Z,7.2
2019-03-17T03:44:18.623Z,7.17
2019-03-17T03:45:18.930Z,7.15
2019-03-17T03:46:18.618Z,7.17
2019-03-17T03:47:18.855Z,7.17
2019-03-17T03:48:18.856Z,7.13
2019-03-17T03:49:18.837Z,7.17
2019-03-17T03:50:18.933Z,7.14
2019-03-17T03:51:18.598Z,7.15
2019-03-17T03:52:18.844Z,7.17
2019-03-17T03:53:18.636Z,7.18
2019-03-17T03:54:18.543Z,7.14
2019-03-17T03:55:18.819Z,7.17
2019-03-17T03:56:18.533Z,7.25
2019-03-17T03:57:18.773Z,7.25
2019-03-17T03:58:18.745Z,7.29
2019-03-17T03:59:18.524Z,7.29
2019-03-17T04:00:18.869Z,7.32
2019-03-17T04:01:18.728Z,7.31
2019-03-17T04:02:18.739Z,7.18
2019-03-17T04:03:18.718Z,7.23
2019-03-17T04:04:18.470Z,7.24
2019-03-17T04:05:18.255Z,7.31
2019-03-17T04:06:30.844Z,7.24
2019-03-17T04:07:18.217Z,7.31
2019-03-17T04:08:18.681Z,7.36
2019-03-17T04:09:18.171Z,7.35
2019-03-17T04:10:18.432Z,7.39
2019-03-17T04:11:18.392Z,7.42
2019-03-17T04:12:18.636Z,7.51
2019-03-17T04:13:18.158Z,7.48
2019-03-17T04:14:18.634Z,7.48
2019-03-17T04:15:18.459Z,7.43
2019-03-17T04:16:18.098Z,7.45
2019-03-17T04:17:18.340Z,7.42
2019-03-17T04:18:18.592Z,7.43
2019-03-17T04:19:18.096Z,7.42
2019-03-17T04:20:18.504Z,7.33
2019-03-17T04:21:18.324Z,7.33
2019-03-17T04:22:19.151Z,7.35
2019-03-17T04:23:18.294Z,7.29
2019-03-17T04:24:18.301Z,7.29
2019-03-17T04:25:18.325Z,7.31
2019-03-17T04:26:18.289Z,7.25
2019-03-17T04:27:18.552Z,7.29
2019-03-17T04:28:18.533Z,7.23
2019-03-17T04:29:18.250Z,7.14
2019-03-17T04:30:18.511Z,7.1
2019-03-17T04:31:19.590Z,7.1
2019-03-17T04:32:18.478Z,7.11
2019-03-17T04:33:18.204Z,7.06
2019-03-17T04:34:17.957Z,7.07
2019-03-17T04:35:18.254Z,7
2019-03-17T04:36:18.445Z,7.03
2019-03-17T04:37:18.176Z,6.88
2019-03-17T04:38:18.186Z,6.95
2019-03-17T04:39:18.402Z,6.99
2019-03-17T04:40:18.221Z,6.99
2019-03-17T04:41:18.409Z,7.02
2019-03-17T04:42:18.155Z,7.05
2019-03-17T04:43:18.134Z,7.06
2019-03-17T04:44:25.606Z,7.05
2019-03-17T04:45:17.917Z,6.99
2019-03-17T04:46:18.340Z,6.89
2019-03-17T04:47:18.327Z,6.84
2019-03-17T04:48:18.326Z,6.85
2019-03-17T04:49:18.317Z,6.84
2019-03-17T04:50:18.150Z,6.72
2019-03-17T04:51:18.062Z,6.74
2019-03-17T04:52:18.279Z,6.69
2019-03-17T04:53:18.317Z,6.66
2019-03-17T04:54:18.023Z,6.74
2019-03-17T04:55:18.024Z,6.54
2019-03-17T04:56:17.998Z,6.51
2019-03-17T04:57:17.981Z,6.63
2019-03-17T04:58:17.733Z,6.49
2019-03-17T04:59:18.210Z,6.46
2019-03-17T05:00:18.304Z,6.51
2019-03-17T05:01:17.706Z,6.42
2019-03-17T05:02:18.631Z,6.36
2019-03-17T05:03:17.956Z,6.44
2019-03-17T05:04:17.941Z,6.35
2019-03-17T05:05:17.969Z,6.46
2019-03-17T05:06:18.158Z,6.36
2019-03-17T05:07:17.906Z,6.39
2019-03-17T05:08:17.906Z,6.42
2019-03-17T05:09:17.627Z,6.33
2019-03-17T05:10:18.218Z,6.35
2019-03-17T05:11:17.873Z,6.28
2019-03-17T05:12:17.857Z,6.42
2019-03-17T05:13:17.843Z,6.35
2019-03-17T05:14:17.599Z,6.44
2019-03-17T05:15:17.643Z,6.39
2019-03-17T05:16:18.078Z,6.33
2019-03-17T05:17:17.554Z,6.45
2019-03-17T05:18:17.805Z,6.36
2019-03-17T05:19:18.053Z,6.41
2019-03-17T05:20:17.580Z,6.33
2019-03-17T05:21:18.018Z,6.39
2019-03-17T05:22:17.512Z,6.38
2019-03-17T05:23:17.752Z,6.28
2019-03-17T05:24:17.749Z,6.2
2019-03-17T05:25:17.823Z,6.27
2019-03-17T05:26:17.752Z,6.26
2019-03-17T05:27:17.972Z,6.3
2019-03-17T05:28:17.722Z,6.27
2019-03-17T05:29:18.038Z,6.24
2019-03-17T05:30:17.800Z,6.27
2019-03-17T05:31:17.693Z,6.17
2019-03-17T05:32:17.967Z,6.17
2019-03-17T05:33:17.671Z,6.11
2019-03-17T05:34:17.690Z,6.14
2019-03-17T05:35:17.650Z,6.16
2019-03-17T05:36:17.644Z,6.12
2019-03-17T05:37:17.885Z,6.11
2019-03-17T05:38:17.625Z,6.11
2019-03-17T05:39:17.621Z,6.07
2019-03-17T05:40:17.698Z,6.08
2019-03-17T05:41:17.594Z,6.12
2019-03-17T05:42:17.589Z,5.99
2019-03-17T05:43:17.645Z,6.11
2019-03-17T05:44:17.570Z,6.09
2019-03-17T05:45:17.635Z,6.11
2019-03-17T05:46:17.561Z,6.05
2019-03-17T05:47:17.551Z,6.09
2019-03-17T05:48:17.775Z,6.09
2019-03-17T05:49:17.524Z,6.11
2019-03-17T05:50:17.799Z,6.08
2019-03-17T05:51:17.258Z,6.11
2019-03-17T05:52:17.503Z,6.12
2019-03-17T05:53:17.253Z,6.12
2019-03-17T05:54:17.248Z,6.19
2019-03-17T05:55:17.268Z,6.24
2019-03-17T05:56:17.462Z,6.12
2019-03-17T05:57:17.204Z,6.24
2019-03-17T05:58:17.452Z,6.22
2019-03-17T05:59:19.533Z,6.22
2019-03-17T06:00:17.464Z,6.28
2019-03-17T06:01:17.432Z,6.22
2019-03-17T06:02:17.656Z,6.39
2019-03-17T06:03:17.398Z,6.44
2019-03-17T06:04:17.635Z,6.45
2019-03-17T06:05:17.183Z,6.48
2019-03-17T06:06:17.373Z,6.51
2019-03-17T06:07:23.580Z,6.56
2019-03-17T06:08:17.608Z,6.62
2019-03-17T06:09:17.604Z,6.54
2019-03-17T06:10:17.438Z,6.59
2019-03-17T06:11:17.586Z,6.7
2019-03-17T06:12:17.657Z,6.64
2019-03-17T06:13:17.068Z,6.69
2019-03-17T06:14:17.314Z,6.77
2019-03-17T06:15:17.640Z,6.72
2019-03-17T06:16:17.295Z,6.81
2019-03-17T06:17:17.542Z,6.85
2019-03-17T06:18:17.300Z,6.87
2019-03-17T06:19:17.279Z,6.93
2019-03-17T06:20:17.148Z,6.93
2019-03-17T06:21:17.267Z,6.99
2019-03-17T06:22:17.232Z,7.11
2019-03-17T06:23:19.682Z,7.15
2019-03-17T06:24:17.494Z,7.11
2019-03-17T06:25:17.416Z,7.18
2019-03-17T06:26:17.214Z,7.13
2019-03-17T06:27:17.223Z,7.13
2019-03-17T06:28:17.437Z,7.15
2019-03-17T06:29:16.937Z,7.2
2019-03-17T06:30:17.258Z,7.23
2019-03-17T06:31:17.428Z,7.2
2019-03-17T06:32:17.175Z,7.32
2019-03-17T06:33:17.405Z,7.28
2019-03-17T06:34:17.144Z,7.35
2019-03-17T06:35:16.994Z,7.36
2019-03-17T06:36:16.881Z,7.43
2019-03-17T06:37:16.879Z,7.36
2019-03-17T06:38:17.116Z,7.32
2019-03-17T06:39:17.114Z,7.42
2019-03-17T06:40:17.448Z,7.4
2019-03-17T06:41:17.097Z,7.43
2019-03-17T06:42:17.342Z,7.48
2019-03-17T06:43:16.853Z,7.5
2019-03-17T06:44:17.366Z,7.58
2019-03-17T06:45:17.107Z,7.57
2019-03-17T06:46:16.821Z,7.73
2019-03-17T06:47:17.078Z,7.72
2019-03-17T06:48:16.807Z,7.82
2019-03-17T06:49:17.051Z,7.91
2019-03-17T06:50:16.897Z,7.88
2019-03-17T06:51:17.024Z,7.97
2019-03-17T06:52:17.018Z,8.06
2019-03-17T06:53:16.762Z,8.09
2019-03-17T06:54:17.240Z,8.23
2019-03-17T06:55:17.066Z,8.15
2019-03-17T06:56:16.994Z,8.24
2019-03-17T06:57:16.972Z,8.23
2019-03-17T06:58:16.971Z,8.36
2019-03-17T06:59:20.019Z,8.42
2019-03-17T07:00:17.348Z,8.38
2019-03-17T07:01:16.946Z,8.56
2019-03-17T07:02:16.701Z,8.58
2019-03-17T07:03:17.178Z,8.55
2019-03-17T07:04:17.168Z,8.61
2019-03-17T07:05:17.258Z,8.76
2019-03-17T07:06:17.165Z,8.87
2019-03-17T07:07:17.154Z,8.88
2019-03-17T07:08:16.976Z,9.04
2019-03-17T07:09:16.902Z,9.11
2019-03-17T07:10:16.912Z,9.13
2019-03-17T07:11:16.883Z,9.26
2019-03-17T07:12:16.633Z,9.29
2019-03-17T07:13:16.617Z,9.5
2019-03-17T07:14:17.106Z,9.87
2019-03-17T07:15:17.130Z,10.25
2019-03-17T07:16:16.853Z,10.97
2019-03-17T07:17:19.179Z,11.83
2019-03-17T07:18:16.838Z,12.54
2019-03-17T07:19:17.094Z,13.41
2019-03-17T07:20:16.931Z,14.03
2019-03-17T07:21:17.103Z,14.72
2019-03-17T07:22:17.087Z,15.37
2019-03-17T07:23:17.068Z,16.08
2019-03-17T07:24:17.622Z,16.66
2019-03-17T07:25:17.137Z,17.2
2019-03-17T07:26:17.072Z,17.59
2019-03-17T07:27:16.829Z,17.78
2019-03-17T07:28:16.565Z,17.72
2019-03-17T07:29:17.095Z,17.16
2019-03-17T07:30:17.130Z,17.19
2019-03-17T07:31:17.086Z,17.38
2019-03-17T07:32:16.809Z,17.7
2019-03-17T07:33:17.085Z,18.18
2019-03-17T07:34:17.160Z,18.43
2019-03-17T07:35:17.152Z,18.98
2019-03-17T07:36:17.076Z,19.12
2019-03-17T07:37:16.816Z,19.3
2019-03-17T07:38:16.824Z,19.29
2019-03-17T07:39:17.364Z,19.31
2019-03-17T07:40:16.933Z,19.22
2019-03-17T07:41:16.834Z,19.26
2019-03-17T07:42:17.093Z,19.26
2019-03-17T07:43:16.836Z,19.27
2019-03-17T07:44:16.596Z,19.27
2019-03-17T07:45:17.126Z,19.14
2019-03-17T07:46:16.836Z,19.12
2019-03-17T07:47:17.147Z,19.11
2019-03-17T07:48:17.129Z,19.02
2019-03-17T07:49:17.099Z,19.14
2019-03-17T07:50:17.193Z,19.22
2019-03-17T07:51:17.105Z,19.52
2019-03-17T07:52:17.110Z,19.64
2019-03-17T07:53:17.121Z,19.81
2019-03-17T07:54:18.471Z,20.14
2019-03-17T07:55:17.208Z,20.77
2019-03-17T07:56:16.874Z,21.52
2019-03-17T07:57:17.120Z,22.1
2019-03-17T07:58:17.134Z,22.59
2019-03-17T07:59:16.887Z,22.81
2019-03-17T08:00:16.993Z,22.98
2019-03-17T08:01:17.132Z,23.17
2019-03-17T08:02:16.892Z,23.28
2019-03-17T08:03:16.900Z,23.18
2019-03-17T08:04:17.144Z,23.12
2019-03-17T08:05:17.273Z,23.12
2019-03-17T08:06:16.918Z,23
2019-03-17T08:07:19.305Z,22.96
2019-03-17T08:08:16.919Z,23.06
2019-03-17T08:09:17.239Z,23.25
2019-03-17T08:10:17.020Z,23.28
2019-03-17T08:11:17.179Z,23.15
2019-03-17T08:12:16.941Z,23.12
2019-03-17T08:13:16.942Z,23
2019-03-17T08:14:16.949Z,22.57
2019-03-17T08:15:16.968Z,22.39
2019-03-17T08:16:17.191Z,21.88
2019-03-17T08:17:17.198Z,21.46
2019-03-17T08:18:17.204Z,21.29
2019-03-17T08:19:17.212Z,21.29
2019-03-17T08:20:17.185Z,21
2019-03-17T08:21:17.239Z,20.4
2019-03-17T08:22:17.227Z,20.14
2019-03-17T08:23:17.231Z,19.94
2019-03-17T08:24:17.248Z,19.84
2019-03-17T08:25:17.015Z,19.64
2019-03-17T08:26:17.250Z,19.26
2019-03-17T08:27:17.244Z,19.02
2019-03-17T08:28:17.261Z,18.59
2019-03-17T08:29:17.009Z,18.1
2019-03-17T08:30:17.055Z,17.71
2019-03-17T08:31:17.008Z,17.36
2019-03-17T08:32:17.022Z,17.11
2019-03-17T08:33:17.272Z,16.99
2019-03-17T08:34:17.286Z,16.86
2019-03-17T08:35:17.362Z,16.87
2019-03-17T08:36:17.070Z,16.86
2019-03-17T08:37:17.038Z,16.81
2019-03-17T08:38:26.700Z,16.84
2019-03-17T08:39:17.041Z,16.84
2019-03-17T08:40:17.103Z,16.97
2019-03-17T08:41:17.277Z,17.06
2019-03-17T08:42:17.053Z,17.16
2019-03-17T08:43:17.072Z,17.2
2019-03-17T08:44:17.298Z,17.31
2019-03-17T08:45:17.094Z,17.33
2019-03-17T08:46:16.818Z,17.38
2019-03-17T08:47:17.065Z,17.52
2019-03-17T08:48:17.295Z,17.54
2019-03-17T08:49:17.056Z,17.52
2019-03-17T08:50:17.176Z,17.6
2019-03-17T08:51:17.447Z,17.6
2019-03-17T08:52:17.061Z,17.65
2019-03-17T08:53:17.295Z,17.72
2019-03-17T08:54:17.096Z,17.64
2019-03-17T08:55:17.103Z,17.64
2019-03-17T08:56:17.301Z,17.68
2019-03-17T08:57:17.045Z,17.63
2019-03-17T08:58:17.300Z,17.63
2019-03-17T08:59:17.075Z,17.67
2019-03-17T09:00:17.339Z,17.64
2019-03-17T09:01:17.301Z,17.71
2019-03-17T09:02:17.067Z,17.82
2019-03-17T09:03:17.093Z,17.85
2019-03-17T09:04:17.066Z,17.9
2019-03-17T09:05:16.866Z,18.04
2019-03-17T09:06:16.842Z,18.05
2019-03-17T09:07:17.080Z,18.16
2019-03-17T09:08:17.103Z,18.08
2019-03-17T09:09:17.084Z,17.97
2019-03-17T09:10:17.081Z,18.08
2019-03-17T09:11:17.072Z,18.08
2019-03-17T09:12:17.298Z,18.08
2019-03-17T09:13:17.082Z,18.13
2019-03-17T09:14:17.087Z,18.13
2019-03-17T09:15:17.369Z,18.16
2019-03-17T09:16:17.080Z,18.16
2019-03-17T09:17:19.359Z,18.22
2019-03-17T09:18:17.076Z,18.2
2019-03-17T09:19:17.079Z,18.26
2019-03-17T09:20:17.398Z,18.34
2019-03-17T09:21:17.065Z,18.33
2019-03-17T09:22:17.303Z,18.38
2019-03-17T09:23:17.306Z,18.35
2019-03-17T09:24:22.252Z,18.43
2019-03-17T09:25:17.360Z,18.38
2019-03-17T09:26:16.858Z,18.35
2019-03-17T09:27:17.323Z,18.25
2019-03-17T09:28:17.307Z,18.28
2019-03-17T09:29:17.079Z,18.28
2019-03-17T09:30:17.176Z,18.23
2019-03-17T09:31:17.078Z,18.26
2019-03-17T09:32:17.065Z,18.29
2019-03-17T09:33:16.832Z,18.29
2019-03-17T09:34:17.085Z,18.33
2019-03-17T09:35:17.325Z,18.11
2019-03-17T09:36:17.329Z,18.1
2019-03-17T09:37:17.296Z,18.05
2019-03-17T09:38:17.080Z,18.04
2019-03-17T09:39:17.069Z,18.03
2019-03-17T09:40:17.369Z,18.15
2019-03-17T09:41:17.314Z,18.15
2019-03-17T09:42:17.062Z,18.07
2019-03-17T09:43:16.829Z,18.25
2019-03-17T09:44:17.075Z,18.26
2019-03-17T09:45:17.189Z,18.25
2019-03-17T09:46:17.086Z,18.2
2019-03-17T09:47:17.059Z,18.26
2019-03-17T09:48:17.057Z,18.34
2019-03-17T09:49:17.314Z,18.33
2019-03-17T09:50:17.436Z,18.4
2019-03-17T09:51:17.084Z,18.41
2019-03-17T09:52:17.315Z,18.59
2019-03-17T09:53:17.314Z,18.56
2019-03-17T09:54:17.081Z,18.66
2019-03-17T09:55:17.099Z,18.7
2019-03-17T09:56:17.319Z,18.73
2019-03-17T09:57:17.061Z,18.71
2019-03-17T09:58:17.317Z,18.7
2019-03-17T09:59:17.102Z,18.7
2019-03-17T10:00:17.327Z,18.68
2019-03-17T10:01:17.056Z,18.68
2019-03-17T10:02:17.074Z,18.75
2019-03-17T10:03:17.410Z,18.84
2019-03-17T10:04:17.065Z,18.78
2019-03-17T10:05:17.324Z,18.86
2019-03-17T10:06:17.067Z,18.78
2019-03-17T10:07:17.312Z,18.93
2019-03-17T10:08:17.093Z,19.02
2019-03-17T10:09:17.067Z,19.09
2019-03-17T10:10:17.309Z,19.14
2019-03-17T10:11:17.295Z,19.14
2019-03-17T10:12:16.838Z,19.14
2019-03-17T10:13:17.358Z,19.15
2019-03-17T10:14:17.056Z,19.16
2019-03-17T10:15:17.084Z,19.11
2019-03-17T10:16:17.321Z,19.14
2019-03-17T10:17:17.051Z,19.08
2019-03-17T10:18:16.817Z,19.11
2019-03-17T10:19:17.053Z,19.16
2019-03-17T10:20:17.412Z,19.24
2019-03-17T10:21:17.064Z,19.26
2019-03-17T10:22:16.812Z,19.27
2019-03-17T10:23:17.335Z,19.34
2019-03-17T10:24:17.058Z,19.36
2019-03-17T10:25:17.322Z,19.34
2019-03-17T10:26:17.319Z,19.37
2019-03-17T10:27:17.065Z,19.3
2019-03-17T10:28:17.333Z,19.3
2019-03-17T10:29:17.324Z,19.34
2019-03-17T10:30:17.109Z,19.26
2019-03-17T10:31:17.327Z,19.22
2019-03-17T10:32:17.068Z,19.24
2019-03-17T10:33:17.069Z,19.15
2019-03-17T10:34:17.335Z,19.15
2019-03-17T10:35:17.487Z,19.09
2019-03-17T10:36:17.356Z,19.22
2019-03-17T10:37:17.395Z,19.3
2019-03-17T10:38:16.831Z,19.4
2019-03-17T10:39:17.468Z,19.31
2019-03-17T10:40:17.344Z,19.36
2019-03-17T10:41:16.829Z,19.26
2019-03-17T10:42:17.324Z,19.26
2019-03-17T10:43:17.083Z,19.26
2019-03-17T10:44:16.826Z,19.34
2019-03-17T10:45:17.169Z,19.39
2019-03-17T10:46:17.325Z,19.3
2019-03-17T10:47:17.333Z,19.31
2019-03-17T10:48:17.142Z,19.47
2019-03-17T10:49:17.100Z,19.44
2019-03-17T10:50:17.356Z,19.39
2019-03-17T10:51:17.108Z,19.36
2019-03-17T10:52:17.343Z,19.33
2019-03-17T10:53:17.087Z,19.34
2019-03-17T10:54:19.791Z,19.37
2019-03-17T10:55:17.116Z,19.33
2019-03-17T10:56:17.094Z,19.24
2019-03-17T10:57:16.842Z,19.24
2019-03-17T10:58:17.115Z,19.22
2019-03-17T10:59:17.121Z,19.31
2019-03-17T11:00:17.162Z,19.26
2019-03-17T11:01:17.345Z,19.41
2019-03-17T11:02:17.340Z,19.51
2019-03-17T11:03:17.115Z,19.47
2019-03-17T11:04:17.116Z,19.47
2019-03-17T11:05:17.202Z,19.59
2019-03-17T11:06:17.350Z,19.67
2019-03-17T11:07:17.339Z,19.86
2019-03-17T11:08:17.345Z,19.81
2019-03-17T11:09:29.189Z,19.85
2019-03-17T11:10:17.125Z,19.99
2019-03-17T11:11:17.124Z,19.99
2019-03-17T11:12:17.111Z,20.14
2019-03-17T11:13:17.345Z,20.24
2019-03-17T11:14:17.350Z,20.26
2019-03-17T11:15:17.137Z,20.29
2019-03-17T11:16:17.346Z,20.26
2019-03-17T11:17:17.343Z,20.28
2019-03-17T11:18:16.849Z,20.28
2019-03-17T11:19:17.154Z,20.21
2019-03-17T11:20:17.403Z,20.18
2019-03-17T11:21:17.355Z,20.18
2019-03-17T11:22:17.354Z,20.13
2019-03-17T11:23:16.850Z,20.07
2019-03-17T11:24:17.142Z,20.02
2019-03-17T11:25:17.151Z,19.99
2019-03-17T11:26:17.351Z,20.03
2019-03-17T11:27:17.380Z,20.14
2019-03-17T11:28:17.131Z,20.04
2019-03-17T11:29:17.359Z,20.03
2019-03-17T11:30:17.198Z,20
2019-03-17T11:31:16.947Z,19.89
2019-03-17T11:32:17.387Z,19.92
2019-03-17T11:33:17.204Z,19.95
2019-03-17T11:34:17.368Z,20.03
2019-03-17T11:35:16.974Z,20.02
2019-03-17T11:36:17.149Z,19.99
2019-03-17T11:37:17.158Z,20.06
2019-03-17T11:38:16.894Z,20.1
2019-03-17T11:39:17.188Z,20.21
2019-03-17T11:40:17.544Z,20.32
2019-03-17T11:41:17.138Z,20.4
2019-03-17T11:42:17.132Z,20.36
2019-03-17T11:43:16.895Z,20.39
2019-03-17T11:44:17.391Z,20.43
2019-03-17T11:45:17.191Z,20.34
2019-03-17T11:46:17.390Z,20.4
2019-03-17T11:47:17.145Z,20.39
2019-03-17T11:48:17.432Z,20.36
2019-03-17T11:49:17.137Z,20.4
2019-03-17T11:50:17.418Z,20.41
2019-03-17T11:51:17.143Z,20.52
2019-03-17T11:52:16.902Z,20.56
2019-03-17T11:53:17.400Z,20.44
2019-03-17T11:54:17.140Z,20.39
2019-03-17T11:55:18.770Z,20.37
2019-03-17T11:56:17.162Z,20.32
2019-03-17T11:57:17.145Z,20.26
2019-03-17T11:58:17.156Z,20.26
2019-03-17T11:59:17.148Z,20.13
2019-03-17T12:00:17.219Z,20.06
2019-03-17T12:01:20.249Z,19.94
2019-03-17T12:02:28.744Z,20.07
2019-03-17T12:03:17.401Z,19.94
2019-03-17T12:04:17.162Z,20.03
2019-03-17T12:05:17.422Z,20.02
2019-03-17T12:06:17.158Z,20.04
2019-03-17T12:07:17.426Z,19.94
2019-03-17T12:08:17.159Z,20.02
2019-03-17T12:09:28.367Z,20.07
2019-03-17T12:10:17.230Z,20.26
2019-03-17T12:11:17.423Z,20.24
2019-03-17T12:12:17.177Z,20.26
2019-03-17T12:13:17.179Z,20.31
2019-03-17T12:14:17.179Z,20.29
2019-03-17T12:15:17.008Z,20.26
2019-03-17T12:16:17.191Z,20.19
2019-03-17T12:17:17.429Z,20.19
2019-03-17T12:18:17.191Z,20.24
2019-03-17T12:19:17.197Z,20.22
2019-03-17T12:20:17.441Z,20.26
2019-03-17T12:21:17.455Z,20.39
2019-03-17T12:22:17.436Z,20.26
2019-03-17T12:23:17.192Z,20.25
2019-03-17T12:24:17.443Z,20.16
2019-03-17T12:25:17.223Z,19.99
2019-03-17T12:26:17.434Z,19.79
2019-03-17T12:27:17.478Z,19.74
2019-03-17T12:28:17.187Z,19.71
2019-03-17T12:29:17.471Z,19.71
2019-03-17T12:30:17.555Z,19.71
2019-03-17T12:31:17.206Z,19.73
2019-03-17T12:32:17.225Z,19.62
2019-03-17T12:33:17.465Z,19.69
2019-03-17T12:34:27.692Z,19.49
2019-03-17T12:35:17.483Z,19.48
2019-03-17T12:36:18.926Z,19.34
2019-03-17T12:37:17.217Z,19.27
2019-03-17T12:38:17.454Z,19.16
2019-03-17T12:39:17.233Z,19.12
2019-03-17T12:40:17.280Z,19.04
2019-03-17T12:41:17.457Z,18.92
2019-03-17T12:42:17.458Z,18.95
2019-03-17T12:43:17.222Z,18.84
2019-03-17T12:44:17.207Z,18.73
2019-03-17T12:45:17.535Z,18.7
2019-03-17T12:46:17.469Z,18.7
2019-03-17T12:47:17.225Z,18.55
2019-03-17T12:48:17.457Z,18.53
2019-03-17T12:49:17.460Z,18.53
2019-03-17T12:50:17.040Z,18.47
2019-03-17T12:51:16.977Z,18.43
2019-03-17T12:52:17.247Z,18.37
2019-03-17T12:53:17.247Z,18.34
2019-03-17T12:54:17.682Z,18.35
2019-03-17T12:55:17.213Z,18.34
2019-03-17T12:56:17.457Z,18.26
2019-03-17T12:57:17.462Z,18.29
2019-03-17T12:58:19.818Z,18.29
2019-03-17T12:59:17.460Z,18.28
2019-03-17T13:00:17.292Z,18.25
2019-03-17T13:01:17.463Z,18.29
2019-03-17T13:02:17.227Z,18.25
2019-03-17T13:03:17.472Z,18.23
2019-03-17T13:04:17.453Z,18.2
2019-03-17T13:05:18.338Z,18.15
2019-03-17T13:06:16.981Z,18.08
2019-03-17T13:07:17.203Z,18.1
2019-03-17T13:08:17.462Z,18.04
2019-03-17T13:09:17.524Z,17.94